Time;durP1;ratioP1;P1;durP2;ratioP2;P2;SDS_P1;SDS_P2;PMS_P1;PMS_P2;Temp;Humidity;BMP_temperature;BMP_pressure;BME280_temperature;BME280_humidity;BME280_pressure;Samples;Min_cycle;Max_cycle;Signal;HPM_P1;HPM_P2
2022/06/11 00:01:02;;;;;;;18.52;16.60;;;17.30;99.90;;;;;;5052884;28;20044;-56
2022/06/11 00:03:28;;;;;;;17.83;15.48;;;17.30;99.90;;;;;;5052919;28;20453;-55
2022/06/11 00:05:53;;;;;;;20.80;16.33;;;17.20;99.90;;;;;;5053331;28;20072;-55
2022/06/11 00:08:19;;;;;;;19.95;17.52;;;17.20;99.90;;;;;;5053157;28;20120;-55
2022/06/11 00:10:46;;;;;;;17.52;15.90;;;17.20;99.90;;;;;;5052899;28;20124;-56
2022/06/11 00:13:12;;;;;;;19.40;16.83;;;17.20;99.90;;;;;;5052578;28;20411;-54
2022/06/11 00:15:38;;;;;;;17.60;15.82;;;17.10;99.90;;;;;;5058553;28;20052;-56
2022/06/11 00:18:04;;;;;;;18.55;16.50;;;17.10;99.90;;;;;;5059376;28;20067;-56
2022/06/11 00:20:31;;;;;;;17.20;15.52;;;17.10;99.90;;;;;;5059110;28;20173;-55
2022/06/11 00:22:57;;;;;;;20.83;15.70;;;17.10;99.90;;;;;;5059458;28;20045;-55
2022/06/11 00:25:22;;;;;;;16.92;15.30;;;17.10;99.90;;;;;;5059428;28;20047;-56
2022/06/11 00:27:48;;;;;;;18.63;16.63;;;17.20;99.90;;;;;;5059285;28;20037;-56
2022/06/11 00:30:18;;;;;;;16.52;15.02;;;17.20;99.90;;;;;;5059122;28;20395;-54
2022/06/11 00:32:45;;;;;;;16.70;14.43;;;17.20;99.90;;;;;;5059143;28;20479;-56
2022/06/11 00:35:11;;;;;;;17.23;15.43;;;17.30;99.90;;;;;;5059193;28;20048;-56
2022/06/11 00:37:37;;;;;;;16.33;14.45;;;17.30;99.90;;;;;;5058991;28;20436;-55
2022/06/11 00:40:08;;;;;;;16.90;15.00;;;17.30;99.90;;;;;;5059343;28;20049;-55
2022/06/11 00:42:34;;;;;;;14.60;13.07;;;17.30;99.90;;;;;;5059109;28;20040;-56
2022/06/11 00:45:20;;;;;;;15.73;13.80;;;17.30;99.90;;;;;;5059232;28;20067;-56
2022/06/11 00:47:50;;;;;;;16.63;15.00;;;17.30;99.90;;;;;;5059285;28;20045;-55
2022/06/11 00:50:39;;;;;;;16.85;13.63;;;17.30;99.90;;;;;;5059249;28;20060;-56
2022/06/11 00:53:14;;;;;;;15.60;13.25;;;17.20;99.90;;;;;;5058235;28;20488;-55
2022/06/11 00:55:42;;;;;;;14.50;12.15;;;17.20;99.90;;;;;;5059172;28;20063;-54
2022/06/11 00:58:38;;;;;;;15.05;11.85;;;17.20;99.90;;;;;;5059246;28;20045;-55
2022/06/11 01:01:06;;;;;;;15.27;11.95;;;17.10;99.90;;;;;;5057902;28;20523;-55
2022/06/11 01:03:35;;;;;;;12.82;10.55;;;17.10;99.90;;;;;;5059112;28;20065;-55
2022/06/11 01:06:26;;;;;;;14.60;11.13;;;17.00;99.90;;;;;;5059202;28;20048;-55
2022/06/11 01:09:13;;;;;;;17.15;11.30;;;16.90;99.90;;;;;;5059054;28;20145;-55
2022/06/11 01:11:59;;;;;;;13.32;11.05;;;16.90;99.90;;;;;;5057877;28;20356;-54
2022/06/11 01:14:40;;;;;;;14.55;11.18;;;16.70;99.90;;;;;;5058966;28;20494;-55
2022/06/11 01:17:27;;;;;;;12.38;11.07;;;16.70;99.90;;;;;;5059076;28;20049;-55
2022/06/11 01:20:12;;;;;;;12.40;10.70;;;16.60;99.90;;;;;;5058927;28;20080;-55
2022/06/11 01:22:48;;;;;;;15.00;11.60;;;;;;;;;;5058875;28;20059;-54
2022/06/11 01:25:42;;;;;;;13.27;11.98;;;16.40;99.90;;;;;;5058515;28;20514;-56
2022/06/11 01:28:34;;;;;;;14.23;12.18;;;16.40;99.90;;;;;;5055232;28;20037;-53
2022/06/11 01:31:06;;;;;;;15.75;14.05;;;16.30;99.90;;;;;;5055579;28;20124;-54
2022/06/11 01:33:51;;;;;;;15.30;13.65;;;16.30;99.90;;;;;;5055667;28;20055;-53
2022/06/11 01:36:27;;;;;;;15.73;12.70;;;16.30;99.90;;;;;;5055686;28;20040;-52
2022/06/11 01:38:59;;;;;;;15.70;13.48;;;16.20;99.90;;;;;;5055408;28;20415;-53
2022/06/11 01:41:50;;;;;;;17.92;13.20;;;16.10;99.90;;;;;;5055459;28;20384;-54
2022/06/11 01:44:39;;;;;;;15.90;13.07;;;16.10;99.90;;;;;;5055411;28;20048;-54
2022/06/11 01:47:05;;;;;;;20.00;16.52;;;16.10;99.90;;;;;;5055479;28;20445;-52
2022/06/11 01:49:33;;;;;;;22.33;16.50;;;16.10;99.90;;;;;;5055220;28;20441;-52
2022/06/11 01:52:05;;;;;;;17.98;16.17;;;16.00;99.90;;;;;;5115349;22;20028;-94
2022/06/11 01:54:56;;;;;;;18.08;13.80;;;16.00;99.90;;;;;;5102233;28;20450;-94
2022/06/11 01:57:42;;;;;;;13.73;12.20;;;16.00;99.90;;;;;;5081606;28;20046;-94
2022/06/11 02:00:28;;;;;;;14.93;12.27;;;15.90;99.90;;;;;;5064518;28;20234;-94
2022/06/11 02:03:09;;;;;;;12.73;11.43;;;15.90;99.90;;;;;;5064734;28;20055;-95
2022/06/11 02:05:55;;;;;;;15.80;11.60;;;15.90;99.90;;;;;;5064856;28;20146;-94
2022/06/11 02:08:55;;;;;;;14.43;10.77;;;15.90;99.90;;;;;;5081676;28;20077;-94
2022/06/11 02:11:33;;;;;;;13.23;10.80;;;15.90;99.90;;;;;;5081076;28;20048;-94
2022/06/11 02:14:14;;;;;;;13.82;10.52;;;16.00;99.90;;;;;;5080947;28;20043;-94
2022/06/11 02:16:42;;;;;;;11.60;9.95;;;16.00;99.90;;;;;;5098826;28;20075;-94
2022/06/11 02:19:13;;;;;;;12.02;10.20;;;16.00;99.90;;;;;;5064204;28;20139;-93
2022/06/11 02:21:47;;;;;;;11.52;9.85;;;16.10;99.90;;;;;;5062788;28;20481;-94
2022/06/11 02:24:38;;;;;;;14.60;9.50;;;16.10;99.90;;;;;;5063286;28;20048;-94
2022/06/11 02:27:10;;;;;;;12.60;9.40;;;16.00;99.90;;;;;;5064477;28;20040;-94
2022/06/11 02:29:37;;;;;;;12.98;8.45;;;15.90;99.90;;;;;;5080996;28;20044;-94
2022/06/11 02:32:07;;;;;;;10.20;7.70;;;15.90;99.90;;;;;;5079380;28;20062;-93
2022/06/11 02:34:38;;;;;;;9.85;8.07;;;15.80;99.90;;;;;;5079734;28;20559;-94
2022/06/11 02:37:11;;;;;;;10.88;7.60;;;15.80;99.90;;;;;;5079644;28;20123;-95
2022/06/11 02:39:41;;;;;;;10.77;7.63;;;15.70;99.90;;;;;;5063587;28;20067;-93
2022/06/11 02:42:11;;;;;;;10.00;8.02;;;15.70;99.90;;;;;;5080414;28;20040;-94
2022/06/11 02:44:36;;;;;;;9.15;6.90;;;15.60;99.90;;;;;;5063471;28;20071;-93
2022/06/11 02:47:03;;;;;;;7.63;6.85;;;;;;;;;;5086332;28;20024;-94
2022/06/11 02:49:33;;;;;;;10.23;6.70;;;15.60;99.90;;;;;;5067199;28;20051;-95
2022/06/11 02:52:03;;;;;;;9.10;6.45;;;15.50;99.90;;;;;;5064788;28;20056;-95
2022/06/11 02:54:29;;;;;;;6.85;5.43;;;15.50;99.90;;;;;;5080484;28;20044;-95
2022/06/11 02:56:57;;;;;;;8.18;5.55;;;15.50;99.90;;;;;;5080503;28;20068;-94
2022/06/11 02:59:25;;;;;;;8.80;5.25;;;15.40;99.90;;;;;;5081349;28;20099;-94
2022/06/11 03:01:54;;;;;;;9.82;5.20;;;15.40;99.90;;;;;;5081211;28;20044;-94
2022/06/11 03:04:22;;;;;;;6.32;4.82;;;15.40;99.90;;;;;;5081483;28;20063;-95
2022/06/11 03:06:48;;;;;;;6.93;4.68;;;15.40;99.90;;;;;;5080813;28;20040;-95
2022/06/11 03:09:18;;;;;;;7.47;4.80;;;15.40;99.90;;;;;;5064310;28;20047;-94
2022/06/11 03:11:44;;;;;;;9.73;5.00;;;15.40;99.90;;;;;;5068912;28;20044;-96
2022/06/11 03:14:10;;;;;;;6.68;4.53;;;15.30;99.90;;;;;;5084098;28;20450;-94
2022/06/11 03:16:37;;;;;;;7.80;4.97;;;15.30;99.90;;;;;;5080668;28;20040;-94
2022/06/11 03:19:05;;;;;;;8.82;4.85;;;15.20;99.90;;;;;;5070156;28;20047;-93
2022/06/11 03:21:30;;;;;;;;;;;15.20;99.90;;;;;;5071934;28;20184;-94
2022/06/11 03:23:56;;;;;;;8.45;4.72;;;15.20;99.90;;;;;;5081998;28;19924;-94
2022/06/11 03:26:22;;;;;;;7.25;5.05;;;15.10;99.90;;;;;;5067837;28;20047;-94
2022/06/11 03:28:48;;;;;;;10.10;5.43;;;15.10;99.90;;;;;;5089116;28;20036;-95
2022/06/11 03:31:14;;;;;;;6.97;5.47;;;15.10;99.90;;;;;;5071660;28;20071;-95
2022/06/11 03:33:40;;;;;;;7.82;5.20;;;15.00;99.90;;;;;;5069582;28;20051;-94
2022/06/11 03:36:10;;;;;;;6.35;5.18;;;15.10;99.90;;;;;;5066396;28;20108;-96
2022/06/11 03:38:37;;;;;;;10.23;5.22;;;15.00;99.90;;;;;;5066325;28;20036;-94
2022/06/11 03:41:04;;;;;;;8.23;5.40;;;15.10;99.90;;;;;;5089114;28;20047;-94
2022/06/11 03:43:30;;;;;;;8.10;5.30;;;15.20;99.90;;;;;;5070801;28;20119;-94
2022/06/11 03:45:56;;;;;;;8.35;5.40;;;15.20;99.90;;;;;;5068610;28;20052;-94
2022/06/11 03:48:22;;;;;;;8.80;5.25;;;15.20;99.90;;;;;;5066855;28;20040;-95
2022/06/11 03:50:48;;;;;;;9.18;5.18;;;15.20;99.90;;;;;;5065006;28;20079;-95
2022/06/11 03:53:14;;;;;;;9.23;5.80;;;15.30;99.90;;;;;;5069616;28;20063;-95
2022/06/11 03:55:42;;;;;;;8.10;5.32;;;15.30;99.90;;;;;;5088921;28;20032;-94
2022/06/11 03:58:09;;;;;;;9.10;5.30;;;15.40;99.90;;;;;;5107265;28;20091;-94
2022/06/11 04:03:21;;;;;;;7.57;5.25;;;;;;;;;;5079886;28;20051;-93
2022/06/11 04:05:50;;;;;;;8.23;5.38;;;15.70;99.90;;;;;;5062458;28;20098;-94
2022/06/11 04:08:17;;;;;;;8.18;4.70;;;15.60;99.90;;;;;;5063157;28;20052;-94
2022/06/11 04:10:44;;;;;;;10.88;6.10;;;15.70;99.90;;;;;;5079774;28;20040;-93
2022/06/11 04:13:11;;;;;;;7.75;5.03;;;15.70;99.90;;;;;;5062207;28;20072;-94
2022/06/11 04:15:38;;;;;;;7.63;5.20;;;15.80;99.90;;;;;;5062398;28;20047;-93
2022/06/11 04:18:05;;;;;;;9.90;6.47;;;15.80;99.90;;;;;;5079918;28;20044;-93
2022/06/11 04:20:32;;;;;;;7.50;4.97;;;15.90;99.90;;;;;;5079777;28;20100;-93
2022/06/11 04:22:59;;;;;;;8.43;5.47;;;16.00;99.90;;;;;;5074230;28;20028;-94
2022/06/11 04:25:25;;;;;;;9.77;5.60;;;16.00;99.90;;;;;;5082263;28;20286;-93
2022/06/11 04:27:53;;;;;;;8.35;5.13;;;16.00;99.90;;;;;;5087004;28;20052;-93
2022/06/11 04:30:21;;;;;;;6.93;5.10;;;16.00;99.90;;;;;;5062833;28;20040;-94
2022/06/11 04:32:46;;;;;;;;;;;16.10;99.90;;;;;;5061864;28;20041;-94
2022/06/11 04:35:12;;;;;;;7.60;5.80;;;16.70;99.90;;;;;;5061631;28;19927;-93
2022/06/11 04:37:38;;;;;;;9.23;5.25;;;17.60;99.90;;;;;;5098309;28;20085;-95
2022/06/11 04:40:07;;;;;;;9.98;5.43;;;18.60;99.90;;;;;;5063500;28;20032;-93
2022/06/11 04:42:34;;;;;;;10.00;4.88;;;19.20;99.90;;;;;;5063829;28;20036;-92
2022/06/11 04:45:01;;;;;;;7.53;4.43;;;19.70;99.90;;;;;;5063664;28;20036;-95
2022/06/11 04:47:28;;;;;;;9.63;4.57;;;19.80;99.90;;;;;;5062219;28;20036;-94
2022/06/11 04:49:56;;;;;;;9.05;4.10;;;20.40;99.90;;;;;;5080460;28;20128;-95
2022/06/11 04:52:23;;;;;;;6.22;4.22;;;21.10;99.90;;;;;;5062547;28;20055;-95
2022/06/11 04:54:49;;;;;;;6.90;3.58;;;21.60;99.90;;;;;;5081134;28;20063;-92
2022/06/11 04:57:15;;;;;;;7.10;3.97;;;22.20;99.90;;;;;;5064029;28;20036;-92
2022/06/11 04:59:41;;;;;;;6.78;4.25;;;22.60;99.90;;;;;;5097634;28;20051;-94
2022/06/11 05:02:07;;;;;;;7.43;3.75;;;23.10;99.90;;;;;;5067675;28;20051;-93
2022/06/11 05:04:33;;;;;;;6.75;3.30;;;23.50;99.90;;;;;;5083657;28;20047;-93
2022/06/11 05:06:58;;;;;;;10.43;3.92;;;24.00;99.90;;;;;;5083795;28;20081;-93
2022/06/11 05:09:26;;;;;;;6.00;2.95;;;24.40;99.90;;;;;;5067136;28;20489;-93
2022/06/11 05:11:52;;;;;;;6.68;3.40;;;24.50;99.90;;;;;;5067613;28;20044;-93
2022/06/11 05:14:18;;;;;;;7.97;3.07;;;25.00;99.90;;;;;;5066592;28;20127;-93
2022/06/11 05:16:46;;;;;;;8.88;3.00;;;25.30;99.90;;;;;;5102117;28;20143;-93
2022/06/11 05:19:14;;;;;;;9.98;3.20;;;25.40;99.90;;;;;;5066829;28;20104;-93
2022/06/11 05:21:41;;;;;;;7.60;3.03;;;25.50;99.90;;;;;;5067470;28;20032;-92
2022/06/11 05:24:07;;;;;;;10.15;2.72;;;25.70;99.90;;;;;;5065958;28;20055;-94
2022/06/11 05:26:42;;;;;;;6.35;2.80;;;25.80;99.90;;;;;;5066741;28;20044;-93
2022/06/11 05:29:14;;;;;;;6.25;2.58;;;26.20;99.90;;;;;;5082812;28;20040;-91
2022/06/11 05:31:40;;;;;;;8.15;2.58;;;26.60;99.90;;;;;;5082804;28;20059;-90
2022/06/11 05:34:05;;;;;;;10.40;3.22;;;26.70;99.90;;;;;;5066067;28;20040;-91
2022/06/11 05:36:31;;;;;;;7.68;2.85;;;26.70;99.90;;;;;;5065695;28;20079;-92
2022/06/11 05:38:56;;;;;;;8.20;2.60;;;27.00;99.90;;;;;;5083820;28;20031;-91
2022/06/11 05:41:22;;;;;;;8.65;2.92;;;27.20;99.90;;;;;;5063892;28;20480;-90
2022/06/11 05:43:50;;;;;;;9.65;3.10;;;27.30;97.50;;;;;;5080525;28;20095;-93
2022/06/11 05:46:20;;;;;;;8.77;2.55;;;27.30;97.30;;;;;;5080837;28;20040;-91
2022/06/11 05:48:49;;;;;;;9.55;3.42;;;27.30;97.60;;;;;;5063074;28;20090;-92
2022/06/11 05:51:18;;;;;;;8.63;2.80;;;27.40;98.50;;;;;;5062146;28;20226;-92
2022/06/11 05:53:44;;;;;;;7.90;2.90;;;;;;;;;;5097690;28;20489;-93
2022/06/11 05:56:10;;;;;;;11.38;3.47;;;27.40;92.40;;;;;;5063742;28;20131;-94
2022/06/11 05:58:43;;;;;;;6.43;2.65;;;27.50;92.40;;;;;;5063375;28;20081;-93
2022/06/11 06:01:11;;;;;;;9.10;3.38;;;27.60;92.60;;;;;;5065386;28;20056;-93
2022/06/11 06:03:36;;;;;;;9.43;3.13;;;27.70;91.70;;;;;;5079013;28;20017;-94
2022/06/11 06:06:11;;;;;;;12.38;3.42;;;27.40;89.00;;;;;;5073892;28;20111;-91
2022/06/11 06:08:37;;;;;;;9.15;2.65;;;27.70;94.20;;;;;;5081564;28;20036;-93
2022/06/11 06:11:03;;;;;;;9.68;3.05;;;27.70;90.80;;;;;;5064564;28;20051;-92
2022/06/11 06:13:46;;;;;;;12.35;3.55;;;27.40;88.30;;;;;;5061412;28;20392;-91
2022/06/11 06:16:16;;;;;;;9.93;3.03;;;27.30;87.10;;;;;;5065460;28;20141;-93
2022/06/11 06:18:42;;;;;;;10.25;3.28;;;27.50;88.80;;;;;;5061676;28;20036;-93
2022/06/11 06:21:08;;;;;;;12.50;3.70;;;27.40;86.70;;;;;;5080445;28;20067;-93
2022/06/11 06:23:34;;;;;;;9.15;3.10;;;27.20;91.00;;;;;;5063520;28;20040;-92
2022/06/11 06:26:00;;;;;;;11.73;3.90;;;27.20;86.10;;;;;;5080028;28;20068;-92
2022/06/11 06:28:35;;;;;;;11.18;3.60;;;27.20;87.80;;;;;;5062900;28;20798;-93
2022/06/11 06:31:03;;;;;;;12.25;3.22;;;27.30;90.00;;;;;;5062995;28;20048;-93
2022/06/11 06:33:30;;;;;;;10.73;3.30;;;27.30;86.20;;;;;;5079890;28;20032;-93
2022/06/11 06:35:57;;;;;;;11.27;3.92;;;27.20;85.60;;;;;;5098189;28;20078;-93
2022/06/11 06:38:23;;;;;;;11.10;3.50;;;27.20;87.70;;;;;;5062585;28;20396;-92
2022/06/11 06:40:49;;;;;;;14.38;4.05;;;27.50;89.20;;;;;;5061790;28;20036;-93
2022/06/11 06:43:24;;;;;;;12.60;4.00;;;27.70;88.30;;;;;;5062069;28;20127;-93
2022/06/11 06:45:50;;;;;;;11.68;3.53;;;27.40;84.20;;;;;;5079249;28;20055;-92
2022/06/11 06:48:16;;;;;;;12.30;3.55;;;27.50;84.50;;;;;;5061913;28;20068;-94
2022/06/11 06:50:42;;;;;;;13.95;3.22;;;27.80;89.70;;;;;;5062760;28;20083;-92
2022/06/11 06:53:08;;;;;;;11.98;3.53;;;27.80;81.80;;;;;;5061921;28;20561;-93
2022/06/11 06:55:33;;;;;;;13.57;3.83;;;27.60;81.80;;;;;;5061778;28;20109;-92
2022/06/11 06:57:59;;;;;;;11.55;3.45;;;27.50;83.40;;;;;;5061631;28;20159;-93
2022/06/11 07:00:25;;;;;;;12.05;3.45;;;27.70;85.70;;;;;;5063273;28;20119;-92
2022/06/11 07:02:53;;;;;;;14.13;3.58;;;27.80;85.70;;;;;;5082739;28;20032;-94
2022/06/11 07:05:20;;;;;;;13.13;4.13;;;27.70;87.10;;;;;;5081987;28;20042;-92
2022/06/11 07:07:48;;;;;;;11.90;3.97;;;27.30;84.10;;;;;;5065813;28;20028;-93
2022/06/11 07:10:15;;;;;;;11.00;3.15;;;27.40;87.00;;;;;;5082207;28;20096;-92
2022/06/11 07:12:41;;;;;;;12.40;3.80;;;27.40;88.90;;;;;;5084106;28;20321;-92
2022/06/11 07:15:07;;;;;;;10.73;4.30;;;27.60;88.20;;;;;;5074502;28;20040;-90
2022/06/11 07:17:37;;;;;;;13.27;3.58;;;27.30;83.30;;;;;;5090335;28;20464;-93
2022/06/11 07:20:10;;;;;;;12.15;4.55;;;27.30;88.00;;;;;;5068140;28;20070;-93
2022/06/11 07:22:43;;;;;;;11.10;3.75;;;27.20;87.30;;;;;;5064288;28;20477;-93
2022/06/11 07:25:10;;;;;;;14.75;4.05;;;27.30;86.90;;;;;;5080159;28;20044;-93
2022/06/11 07:27:41;;;;;;;10.43;3.13;;;27.40;89.10;;;;;;5081492;28;20052;-91
2022/06/11 07:30:11;;;;;;;13.27;3.50;;;27.40;88.40;;;;;;5065664;28;20089;-91
2022/06/11 07:32:38;;;;;;;16.10;4.03;;;27.50;88.20;;;;;;5063205;28;20040;-92
2022/06/11 07:35:07;;;;;;;12.68;3.97;;;27.40;87.20;;;;;;5079745;28;20385;-92
2022/06/11 07:37:35;;;;;;;15.13;4.20;;;27.50;89.00;;;;;;5078239;28;20458;-91
2022/06/11 07:40:01;;;;;;;14.25;3.95;;;27.40;90.20;;;;;;5078398;28;20074;-91
2022/06/11 07:42:27;;;;;;;14.27;3.63;;;27.20;89.80;;;;;;5077226;28;20055;-93
2022/06/11 07:45:05;;;;;;;12.52;3.90;;;26.70;88.50;;;;;;5084920;28;20477;-92
2022/06/11 07:50:15;;;;;;;15.63;4.25;;;25.50;93.00;;;;;;5078117;28;20052;-94
2022/06/11 07:52:41;;;;;;;13.50;4.32;;;25.10;95.70;;;;;;5061734;28;20059;-92
2022/06/11 07:55:09;;;;;;;13.40;4.03;;;23.70;98.70;;;;;;5079241;28;20067;-94
2022/06/11 07:57:34;;;;;;;12.45;3.83;;;23.60;99.50;;;;;;5063252;28;20020;-92
2022/06/11 08:00:02;;;;;;;14.60;3.72;;;23.50;99.90;;;;;;5063353;28;20042;-93
2022/06/11 08:02:28;;;;;;;13.93;3.80;;;23.10;99.90;;;;;;5063043;28;20048;-93
2022/06/11 08:04:54;;;;;;;16.13;4.00;;;23.40;99.90;;;;;;5063232;28;20046;-92
2022/06/11 08:07:19;;;;;;;15.07;4.13;;;23.40;99.90;;;;;;5063875;28;20051;-92
2022/06/11 08:09:45;;;;;;;15.38;4.25;;;22.90;99.90;;;;;;5062888;28;20073;-93
2022/06/11 08:12:11;;;;;;;18.55;4.35;;;22.90;99.90;;;;;;5061940;28;20052;-91
2022/06/11 08:14:36;;;;;;;15.75;4.28;;;22.80;99.90;;;;;;5061365;28;20036;-92
2022/06/11 08:17:02;;;;;;;19.00;4.82;;;22.90;99.90;;;;;;5078062;28;20066;-91
2022/06/11 08:19:28;;;;;;;15.82;4.40;;;22.90;99.90;;;;;;5077194;28;20076;-93
2022/06/11 08:21:56;;;;;;;16.08;4.47;;;23.00;99.90;;;;;;5094758;28;20054;-92
2022/06/11 08:24:22;;;;;;;17.95;4.93;;;23.10;99.90;;;;;;5077247;28;20043;-92
2022/06/11 08:26:47;;;;;;;17.17;4.63;;;23.00;99.90;;;;;;5061322;28;20546;-91
2022/06/11 08:29:14;;;;;;;17.15;4.63;;;23.10;99.90;;;;;;5076001;28;20048;-91
2022/06/11 08:31:40;;;;;;;17.40;4.53;;;23.00;99.90;;;;;;5077658;28;20046;-92
2022/06/11 08:34:05;;;;;;;14.18;4.45;;;23.10;99.90;;;;;;5096902;28;20442;-91
2022/06/11 08:36:31;;;;;;;18.65;4.18;;;22.90;99.90;;;;;;5080503;28;20032;-93
2022/06/11 08:38:57;;;;;;;13.63;3.60;;;22.70;99.90;;;;;;5065936;28;20477;-92
2022/06/11 08:41:30;;;;;;;14.55;4.13;;;22.90;99.90;;;;;;5083797;28;20072;-93
2022/06/11 08:44:02;;;;;;;15.65;4.13;;;22.80;99.90;;;;;;5066976;28;20055;-92
2022/06/11 08:46:32;;;;;;;16.52;4.40;;;22.50;99.90;;;;;;5084291;28;20032;-93
2022/06/11 08:49:03;;;;;;;14.20;3.92;;;22.30;99.90;;;;;;5102187;28;20094;-92
2022/06/11 08:51:35;;;;;;;14.43;4.45;;;22.60;99.90;;;;;;5082973;28;20044;-94
2022/06/11 08:54:13;;;;;;;18.52;4.20;;;22.70;99.90;;;;;;5088957;28;20063;-93
2022/06/11 08:56:54;;;;;;;13.27;4.50;;;22.60;99.90;;;;;;5082210;28;20040;-93
2022/06/11 08:59:47;;;;;;;15.52;4.13;;;22.70;99.90;;;;;;5112094;28;20096;-92
2022/06/11 09:02:50;;;;;;;13.68;3.78;;;22.80;99.90;;;;;;5096454;28;20044;-92
2022/06/11 09:05:53;;;;;;;14.75;3.83;;;23.00;99.90;;;;;;5088139;28;20076;-92
2022/06/11 09:08:27;;;;;;;15.75;4.60;;;22.80;99.90;;;;;;5068008;28;20385;-94
2022/06/11 09:11:27;;;;;;;15.85;4.40;;;23.20;99.90;;;;;;5084866;28;20044;-92
2022/06/11 09:14:21;;;;;;;13.23;3.80;;;23.30;99.90;;;;;;5084810;28;20044;-92
2022/06/11 09:17:02;;;;;;;13.48;3.88;;;23.30;99.90;;;;;;5101668;28;20058;-93
2022/06/11 09:19:58;;;;;;;16.77;4.47;;;23.20;99.90;;;;;;5082440;28;20074;-91
2022/06/11 09:22:45;;;;;;;15.18;4.40;;;22.70;99.90;;;;;;5083765;28;20071;-92
2022/06/11 09:25:26;;;;;;;16.52;3.67;;;22.60;99.90;;;;;;5101790;28;20039;-93
2022/06/11 09:28:10;;;;;;;15.20;3.78;;;22.70;99.90;;;;;;5113177;28;20043;-93
2022/06/11 09:30:47;;;;;;;13.43;3.80;;;23.20;99.90;;;;;;5084153;28;20080;-92
2022/06/11 09:33:22;;;;;;;12.88;3.80;;;23.50;99.90;;;;;;5083538;28;20036;-92
2022/06/11 09:35:59;;;;;;;17.08;3.83;;;23.90;99.90;;;;;;5065625;28;20044;-92
2022/06/11 09:38:39;;;;;;;23.17;5.53;;;24.10;99.90;;;;;;5065250;28;20040;-92
2022/06/11 09:41:39;;;;;;;16.42;4.47;;;24.40;99.90;;;;;;5082264;28;20371;-91
2022/06/11 09:44:42;;;;;;;17.05;4.43;;;24.50;99.90;;;;;;5066454;28;20048;-93
2022/06/11 09:47:29;;;;;;;17.40;4.28;;;24.50;99.90;;;;;;5081359;28;20036;-91
2022/06/11 09:50:27;;;;;;;14.40;4.18;;;24.00;99.90;;;;;;5082946;28;20056;-93
2022/06/11 09:53:18;;;;;;;13.40;3.78;;;23.70;99.90;;;;;;4999163;28;20045;-91
2022/06/11 09:55:51;;;;;;;14.20;3.78;;;23.80;99.90;;;;;;4984275;28;20093;-93
2022/06/11 09:58:37;;;;;;;15.52;4.07;;;23.90;99.90;;;;;;5000341;28;20073;-91
2022/06/11 10:01:11;;;;;;;11.07;3.20;;;23.80;99.90;;;;;;5016399;28;20042;-92
2022/06/11 10:03:48;;;;;;;14.77;3.88;;;23.50;99.90;;;;;;4985068;28;20045;-92
2022/06/11 10:06:19;;;;;;;16.05;3.45;;;23.10;99.90;;;;;;5016499;28;20018;-92
2022/06/11 10:09:03;;;;;;;12.73;3.35;;;23.10;99.90;;;;;;4983595;28;20053;-93
2022/06/11 10:11:44;;;;;;;13.50;3.80;;;23.00;99.90;;;;;;4999865;28;20033;-92
2022/06/11 10:14:28;;;;;;;10.85;3.10;;;23.00;99.90;;;;;;4983192;28;20117;-92
2022/06/11 10:17:18;;;;;;;11.10;2.72;;;22.70;99.90;;;;;;5017142;28;20049;-92
2022/06/11 10:20:11;;;;;;;10.48;2.80;;;22.60;99.60;;;;;;5002562;28;20081;-92
2022/06/11 10:22:49;;;;;;;11.88;3.10;;;23.00;99.90;;;;;;4985036;28;20498;-93
2022/06/11 10:25:35;;;;;;;10.43;3.13;;;23.30;99.90;;;;;;4985804;28;20081;-91
2022/06/11 10:28:31;;;;;;;10.00;2.88;;;23.50;99.90;;;;;;5007719;28;20393;-92
2022/06/11 10:31:09;;;;;;;11.07;3.00;;;23.70;99.90;;;;;;5061024;28;20056;-90
2022/06/11 10:33:53;;;;;;;13.05;3.13;;;23.70;96.10;;;;;;5076260;28;20047;-92
2022/06/11 10:36:19;;;;;;;11.52;3.20;;;24.00;97.20;;;;;;5085653;28;20043;-93
2022/06/11 10:39:10;;;;;;;14.32;2.60;;;24.00;97.80;;;;;;5066186;28;20413;-92
2022/06/11 10:41:57;;;;;;;8.65;2.65;;;24.30;98.20;;;;;;5065352;28;20093;-92
2022/06/11 10:44:36;;;;;;;12.00;3.30;;;24.50;96.60;;;;;;5081707;28;20048;-92
2022/06/11 10:47:25;;;;;;;10.70;2.80;;;24.50;93.10;;;;;;5063049;28;20047;-93
2022/06/11 10:50:09;;;;;;;10.77;3.00;;;24.60;95.60;;;;;;5063753;28;20051;-92
2022/06/11 10:53:04;;;;;;;9.02;2.75;;;24.80;94.50;;;;;;5078926;28;20052;-91
2022/06/11 10:55:32;;;;;;;12.25;3.25;;;24.70;93.60;;;;;;5015661;28;20053;-93
2022/06/11 10:58:08;;;;;;;12.10;3.13;;;24.50;94.50;;;;;;5030057;28;20064;-94
2022/06/11 11:00:56;;;;;;;14.05;3.13;;;24.70;95.40;;;;;;4982638;28;20060;-91
2022/06/11 11:03:33;;;;;;;11.05;3.15;;;24.70;94.80;;;;;;4998418;28;20072;-93
2022/06/11 11:06:05;;;;;;;11.50;2.80;;;24.70;93.10;;;;;;5000591;28;20221;-94
2022/06/11 11:08:32;;;;;;;12.27;3.05;;;24.50;91.70;;;;;;5016186;28;20053;-93
2022/06/11 11:10:58;;;;;;;;;;;24.50;93.30;;;;;;5015696;28;20046;-91
2022/06/11 11:13:27;;;;;;;11.93;3.10;;;24.40;92.20;;;;;;5016171;28;19944;-93
2022/06/11 11:16:01;;;;;;;13.57;2.97;;;24.50;92.30;;;;;;5015533;28;20458;-91
2022/06/11 11:18:40;;;;;;;14.15;3.55;;;24.60;94.20;;;;;;4998683;28;20050;-93
2022/06/11 11:21:21;;;;;;;9.75;2.80;;;24.50;91.70;;;;;;4982449;28;20133;-91
2022/06/11 11:23:49;;;;;;;11.25;3.08;;;24.50;91.40;;;;;;4983258;28;20042;-92
2022/06/11 11:26:33;;;;;;;19.27;4.50;;;24.50;92.50;;;;;;4999251;28;20085;-93
2022/06/11 11:29:18;;;;;;;11.90;2.70;;;24.60;91.80;;;;;;4999144;28;20073;-92
2022/06/11 11:31:47;;;;;;;11.52;2.92;;;24.50;93.10;;;;;;5001386;28;20063;-92
2022/06/11 11:34:25;;;;;;;9.80;2.88;;;24.50;92.70;;;;;;5079620;28;20032;-92
2022/06/11 11:36:58;;;;;;;11.18;3.20;;;24.70;92.30;;;;;;5096897;28;20067;-92
2022/06/11 11:39:28;;;;;;;9.85;2.63;;;24.60;92.70;;;;;;5063017;28;20043;-93
2022/06/11 11:42:03;;;;;;;12.32;3.20;;;24.60;91.90;;;;;;5098181;28;20055;-92
2022/06/11 11:44:35;;;;;;;12.55;3.03;;;24.50;90.20;;;;;;5063043;28;20400;-91
2022/06/11 11:47:05;;;;;;;9.48;2.85;;;24.50;93.00;;;;;;5079390;28;20043;-92
2022/06/11 11:49:33;;;;;;;10.60;2.47;;;24.60;91.40;;;;;;5079355;28;20497;-92
2022/06/11 11:52:15;;;;;;;12.18;3.08;;;24.60;90.10;;;;;;5078037;28;20036;-93
2022/06/11 11:55:06;;;;;;;9.80;3.35;;;24.60;90.10;;;;;;5062089;28;20179;-91
2022/06/11 11:57:33;;;;;;;13.35;3.22;;;24.60;90.30;;;;;;5078805;28;20072;-92
2022/06/11 12:00:23;;;;;;;10.00;2.72;;;24.60;90.50;;;;;;5077220;28;20050;-91
2022/06/11 12:02:55;;;;;;;12.93;3.03;;;24.30;86.90;;;;;;5096095;28;20443;-91
2022/06/11 12:05:28;;;;;;;10.65;2.70;;;24.80;91.80;;;;;;5061066;28;20036;-92
2022/06/11 12:07:56;;;;;;;11.48;2.85;;;24.80;90.30;;;;;;5078505;28;20086;-93
2022/06/11 12:10:36;;;;;;;10.00;2.45;;;24.70;91.70;;;;;;5077257;28;20048;-92
2022/06/11 12:13:02;;;;;;;12.68;2.72;;;25.10;91.20;;;;;;5078416;28;20043;-92
2022/06/11 12:15:33;;;;;;;11.13;3.10;;;25.00;87.10;;;;;;5062022;28;20070;-93
2022/06/11 12:18:13;;;;;;;12.85;3.13;;;24.80;90.10;;;;;;5077359;28;20044;-93
2022/06/11 12:20:59;;;;;;;11.55;3.33;;;24.80;90.80;;;;;;5077508;28;20036;-93
2022/06/11 12:23:44;;;;;;;7.45;2.50;;;25.00;91.90;;;;;;5077419;28;20039;-92
2022/06/11 12:26:18;;;;;;;10.45;2.83;;;25.10;90.40;;;;;;5077400;28;20057;-95
2022/06/11 12:28:59;;;;;;;11.50;2.88;;;24.90;86.80;;;;;;5060676;28;20036;-93
2022/06/11 12:31:29;;;;;;;10.18;2.80;;;24.90;90.90;;;;;;5094945;28;20050;-92
2022/06/11 12:33:56;;;;;;;11.57;3.00;;;25.10;89.40;;;;;;5080897;28;20044;-92
2022/06/11 12:36:32;;;;;;;9.75;2.90;;;24.80;87.20;;;;;;5066111;28;20047;-92
2022/06/11 12:39:16;;;;;;;11.52;2.85;;;25.10;90.60;;;;;;5076144;28;20416;-92
2022/06/11 12:41:42;;;;;;;12.40;2.70;;;24.90;86.80;;;;;;5076375;28;20067;-92
2022/06/11 12:44:38;;;;;;;9.68;3.38;;;24.50;90.00;;;;;;5059231;28;20485;-92
2022/06/11 12:47:20;;;;;;;;;;;24.80;90.70;;;;;;5060201;28;20048;-93
2022/06/11 12:49:53;;;;;;;11.88;3.22;;;25.00;91.90;;;;;;5077217;28;19920;-94
2022/06/11 12:52:54;;;;;;;9.02;2.63;;;25.40;91.30;;;;;;5076706;28;20052;-94
2022/06/11 12:55:42;;;;;;;11.98;2.58;;;25.40;89.20;;;;;;5060769;28;20121;-93
2022/06/11 12:58:32;;;;;;;11.77;3.03;;;25.10;89.00;;;;;;5077770;28;20050;-93
2022/06/11 13:01:06;;;;;;;10.77;3.03;;;25.40;86.90;;;;;;5060339;28;20093;-92
2022/06/11 13:04:03;;;;;;;9.48;3.17;;;25.20;87.70;;;;;;5059990;28;20131;-91
2022/06/11 13:06:50;;;;;;;9.63;3.10;;;25.20;88.40;;;;;;5059304;28;20048;-93
2022/06/11 13:09:18;;;;;;;8.25;2.72;;;25.20;88.00;;;;;;5094589;28;20040;-93
2022/06/11 13:12:30;;;;;;;9.15;2.92;;;25.20;89.10;;;;;;5059349;28;20094;-91
2022/06/11 13:15:33;;;;;;;11.15;3.05;;;25.00;87.50;;;;;;5077562;28;20127;-93
2022/06/11 13:18:29;;;;;;;9.77;2.47;;;25.00;87.00;;;;;;5061497;28;20079;-92